sensor_id;sensor_type;location;lat;lon;timestamp;P1;durP1;ratioP1;P2;durP2;ratioP2
74042;SDS011;62384;53.600;10.040;2022-10-16T00:00:36;8.63;;;3.58;;
74042;SDS011;62384;53.600;10.040;2022-10-16T00:03:03;5.40;;;2.85;;
74042;SDS011;62384;53.600;10.040;2022-10-16T00:05:29;10.43;;;3.25;;
74042;SDS011;62384;53.600;10.040;2022-10-16T00:07:55;6.70;;;3.25;;
74042;SDS011;62384;53.600;10.040;2022-10-16T00:10:20;8.93;;;3.60;;
74042;SDS011;62384;53.600;10.040;2022-10-16T00:12:46;8.48;;;2.60;;
74042;SDS011;62384;53.600;10.040;2022-10-16T00:15:11;7.28;;;3.05;;
74042;SDS011;62384;53.600;10.040;2022-10-16T00:17:37;4.43;;;2.67;;
74042;SDS011;62384;53.600;10.040;2022-10-16T00:20:02;7.63;;;3.03;;
74042;SDS011;62384;53.600;10.040;2022-10-16T00:22:27;4.50;;;2.65;;
74042;SDS011;62384;53.600;10.040;2022-10-16T00:24:53;5.80;;;2.45;;
74042;SDS011;62384;53.600;10.040;2022-10-16T00:27:18;3.65;;;2.30;;
74042;SDS011;62384;53.600;10.040;2022-10-16T00:29:43;5.22;;;2.33;;
74042;SDS011;62384;53.600;10.040;2022-10-16T00:32:08;7.40;;;2.53;;
74042;SDS011;62384;53.600;10.040;2022-10-16T00:34:34;2.88;;;1.60;;
74042;SDS011;62384;53.600;10.040;2022-10-16T00:37:02;3.53;;;1.88;;
74042;SDS011;62384;53.600;10.040;2022-10-16T00:39:27;2.30;;;1.58;;
74042;SDS011;62384;53.600;10.040;2022-10-16T00:41:53;2.83;;;1.40;;
74042;SDS011;62384;53.600;10.040;2022-10-16T00:47:15;2.60;;;1.45;;
74042;SDS011;62384;53.600;10.040;2022-10-16T00:49:50;3.85;;;1.58;;
74042;SDS011;62384;53.600;10.040;2022-10-16T00:52:25;2.88;;;1.20;;
74042;SDS011;62384;53.600;10.040;2022-10-16T00:54:50;2.70;;;1.40;;
74042;SDS011;62384;53.600;10.040;2022-10-16T00:57:21;3.75;;;1.30;;
74042;SDS011;62384;53.600;10.040;2022-10-16T00:59:47;6.43;;;1.13;;
74042;SDS011;62384;53.600;10.040;2022-10-16T01:02:14;1.80;;;1.00;;
74042;SDS011;62384;53.600;10.040;2022-10-16T01:04:41;4.72;;;1.35;;
74042;SDS011;62384;53.600;10.040;2022-10-16T01:13:09;3.55;;;1.02;;
74042;SDS011;62384;53.600;10.040;2022-10-16T01:21:02;4.07;;;1.13;;
74042;SDS011;62384;53.600;10.040;2022-10-16T01:29:18;2.38;;;1.00;;
74042;SDS011;62384;53.600;10.040;2022-10-16T01:34:21;7.35;;;1.27;;
74042;SDS011;62384;53.600;10.040;2022-10-16T01:36:54;2.33;;;0.90;;
74042;SDS011;62384;53.600;10.040;2022-10-16T01:39:29;2.65;;;1.00;;
74042;SDS011;62384;53.600;10.040;2022-10-16T01:42:05;1.88;;;1.15;;
74042;SDS011;62384;53.600;10.040;2022-10-16T01:44:34;5.55;;;1.10;;
74042;SDS011;62384;53.600;10.040;2022-10-16T01:47:02;5.07;;;1.25;;
74042;SDS011;62384;53.600;10.040;2022-10-16T01:49:30;5.93;;;1.30;;
74042;SDS011;62384;53.600;10.040;2022-10-16T01:51:58;5.43;;;1.38;;
74042;SDS011;62384;53.600;10.040;2022-10-16T01:54:27;4.40;;;0.98;;
74042;SDS011;62384;53.600;10.040;2022-10-16T01:56:55;3.63;;;1.55;;
74042;SDS011;62384;53.600;10.040;2022-10-16T01:59:33;3.28;;;1.08;;
74042;SDS011;62384;53.600;10.040;2022-10-16T02:02:07;2.20;;;0.90;;
74042;SDS011;62384;53.600;10.040;2022-10-16T02:04:36;6.10;;;1.20;;
74042;SDS011;62384;53.600;10.040;2022-10-16T02:07:12;3.30;;;1.30;;
74042;SDS011;62384;53.600;10.040;2022-10-16T02:09:41;5.53;;;1.25;;
74042;SDS011;62384;53.600;10.040;2022-10-16T02:12:14;5.38;;;1.42;;
74042;SDS011;62384;53.600;10.040;2022-10-16T02:14:47;3.13;;;1.10;;
74042;SDS011;62384;53.600;10.040;2022-10-16T02:17:14;3.17;;;0.95;;
74042;SDS011;62384;53.600;10.040;2022-10-16T02:19:41;3.60;;;1.20;;
74042;SDS011;62384;53.600;10.040;2022-10-16T02:22:07;3.00;;;1.00;;
74042;SDS011;62384;53.600;10.040;2022-10-16T02:24:38;7.75;;;0.82;;
74042;SDS011;62384;53.600;10.040;2022-10-16T02:27:13;2.30;;;0.93;;
74042;SDS011;62384;53.600;10.040;2022-10-16T02:29:47;2.15;;;1.13;;
74042;SDS011;62384;53.600;10.040;2022-10-16T02:32:19;2.97;;;1.35;;
74042;SDS011;62384;53.600;10.040;2022-10-16T02:34:48;2.40;;;1.25;;
74042;SDS011;62384;53.600;10.040;2022-10-16T02:37:15;3.53;;;0.93;;
74042;SDS011;62384;53.600;10.040;2022-10-16T02:39:42;1.50;;;0.90;;
74042;SDS011;62384;53.600;10.040;2022-10-16T02:42:14;1.35;;;0.80;;
74042;SDS011;62384;53.600;10.040;2022-10-16T02:44:40;1.80;;;0.80;;
74042;SDS011;62384;53.600;10.040;2022-10-16T02:47:06;3.00;;;1.27;;
74042;SDS011;62384;53.600;10.040;2022-10-16T02:49:32;1.55;;;0.93;;
74042;SDS011;62384;53.600;10.040;2022-10-16T02:51:57;3.67;;;0.73;;
74042;SDS011;62384;53.600;10.040;2022-10-16T02:54:22;3.08;;;0.93;;
74042;SDS011;62384;53.600;10.040;2022-10-16T02:56:48;0.77;;;0.65;;
74042;SDS011;62384;53.600;10.040;2022-10-16T02:59:14;2.08;;;0.68;;
74042;SDS011;62384;53.600;10.040;2022-10-16T03:01:39;2.60;;;0.70;;
74042;SDS011;62384;53.600;10.040;2022-10-16T03:04:04;5.65;;;0.70;;
74042;SDS011;62384;53.600;10.040;2022-10-16T03:06:30;2.85;;;0.90;;
74042;SDS011;62384;53.600;10.040;2022-10-16T03:08:55;4.15;;;0.90;;
74042;SDS011;62384;53.600;10.040;2022-10-16T03:11:21;3.03;;;0.90;;
74042;SDS011;62384;53.600;10.040;2022-10-16T03:13:50;2.20;;;1.00;;
74042;SDS011;62384;53.600;10.040;2022-10-16T03:16:16;5.00;;;1.20;;
74042;SDS011;62384;53.600;10.040;2022-10-16T03:18:41;1.60;;;0.70;;
74042;SDS011;62384;53.600;10.040;2022-10-16T03:21:11;2.58;;;0.70;;
74042;SDS011;62384;53.600;10.040;2022-10-16T03:23:36;3.03;;;1.23;;
74042;SDS011;62384;53.600;10.040;2022-10-16T03:26:02;5.05;;;0.90;;
74042;SDS011;62384;53.600;10.040;2022-10-16T03:28:27;2.83;;;0.60;;
74042;SDS011;62384;53.600;10.040;2022-10-16T03:30:52;3.55;;;0.80;;
74042;SDS011;62384;53.600;10.040;2022-10-16T03:33:17;5.07;;;1.05;;
74042;SDS011;62384;53.600;10.040;2022-10-16T03:35:43;1.92;;;0.50;;
74042;SDS011;62384;53.600;10.040;2022-10-16T03:38:16;2.97;;;0.70;;
74042;SDS011;62384;53.600;10.040;2022-10-16T03:40:41;1.90;;;1.00;;
74042;SDS011;62384;53.600;10.040;2022-10-16T03:43:06;1.17;;;0.80;;
74042;SDS011;62384;53.600;10.040;2022-10-16T03:45:32;2.08;;;0.60;;
74042;SDS011;62384;53.600;10.040;2022-10-16T03:47:57;1.02;;;0.70;;
74042;SDS011;62384;53.600;10.040;2022-10-16T03:50:22;2.97;;;1.48;;
74042;SDS011;62384;53.600;10.040;2022-10-16T03:52:47;2.50;;;0.60;;
74042;SDS011;62384;53.600;10.040;2022-10-16T03:55:13;4.68;;;0.75;;
74042;SDS011;62384;53.600;10.040;2022-10-16T03:57:38;3.50;;;0.98;;
74042;SDS011;62384;53.600;10.040;2022-10-16T04:00:04;3.45;;;1.50;;
74042;SDS011;62384;53.600;10.040;2022-10-16T04:02:29;1.25;;;0.55;;
74042;SDS011;62384;53.600;10.040;2022-10-16T04:04:55;2.38;;;0.90;;
74042;SDS011;62384;53.600;10.040;2022-10-16T04:07:20;2.97;;;0.80;;
74042;SDS011;62384;53.600;10.040;2022-10-16T04:09:45;1.90;;;0.90;;
74042;SDS011;62384;53.600;10.040;2022-10-16T04:12:10;6.47;;;1.00;;
74042;SDS011;62384;53.600;10.040;2022-10-16T04:14:38;1.85;;;0.85;;
74042;SDS011;62384;53.600;10.040;2022-10-16T04:17:04;5.63;;;1.17;;
74042;SDS011;62384;53.600;10.040;2022-10-16T04:19:32;4.00;;;0.85;;
74042;SDS011;62384;53.600;10.040;2022-10-16T04:21:58;2.47;;;0.80;;
74042;SDS011;62384;53.600;10.040;2022-10-16T04:24:24;2.67;;;0.90;;
74042;SDS011;62384;53.600;10.040;2022-10-16T04:26:49;5.03;;;1.15;;
74042;SDS011;62384;53.600;10.040;2022-10-16T04:29:14;1.58;;;0.95;;
74042;SDS011;62384;53.600;10.040;2022-10-16T04:31:40;1.08;;;0.80;;
74042;SDS011;62384;53.600;10.040;2022-10-16T04:34:05;2.03;;;0.75;;
74042;SDS011;62384;53.600;10.040;2022-10-16T04:36:30;3.05;;;0.93;;
74042;SDS011;62384;53.600;10.040;2022-10-16T04:38:55;9.80;;;1.10;;
74042;SDS011;62384;53.600;10.040;2022-10-16T04:41:21;2.58;;;0.85;;
74042;SDS011;62384;53.600;10.040;2022-10-16T04:43:46;7.28;;;1.42;;
74042;SDS011;62384;53.600;10.040;2022-10-16T04:46:12;5.65;;;1.23;;
74042;SDS011;62384;53.600;10.040;2022-10-16T04:48:37;1.98;;;0.80;;
74042;SDS011;62384;53.600;10.040;2022-10-16T04:51:03;2.85;;;1.02;;
74042;SDS011;62384;53.600;10.040;2022-10-16T04:53:28;6.90;;;1.38;;
74042;SDS011;62384;53.600;10.040;2022-10-16T04:55:54;6.07;;;1.38;;
74042;SDS011;62384;53.600;10.040;2022-10-16T04:58:20;4.57;;;0.90;;
74042;SDS011;62384;53.600;10.040;2022-10-16T05:00:46;1.88;;;1.00;;
74042;SDS011;62384;53.600;10.040;2022-10-16T05:03:12;2.10;;;0.98;;
74042;SDS011;62384;53.600;10.040;2022-10-16T05:05:41;2.70;;;0.90;;
74042;SDS011;62384;53.600;10.040;2022-10-16T05:08:07;2.47;;;0.90;;
74042;SDS011;62384;53.600;10.040;2022-10-16T05:10:32;1.92;;;0.98;;
74042;SDS011;62384;53.600;10.040;2022-10-16T05:12:58;2.65;;;0.90;;
74042;SDS011;62384;53.600;10.040;2022-10-16T05:15:23;4.05;;;1.40;;
74042;SDS011;62384;53.600;10.040;2022-10-16T05:17:51;5.20;;;1.20;;
74042;SDS011;62384;53.600;10.040;2022-10-16T05:20:17;3.05;;;1.13;;
74042;SDS011;62384;53.600;10.040;2022-10-16T05:22:43;1.98;;;1.27;;
74042;SDS011;62384;53.600;10.040;2022-10-16T05:25:08;2.67;;;1.10;;
74042;SDS011;62384;53.600;10.040;2022-10-16T05:27:33;2.95;;;1.00;;
74042;SDS011;62384;53.600;10.040;2022-10-16T05:29:58;5.82;;;1.30;;
74042;SDS011;62384;53.600;10.040;2022-10-16T05:32:24;2.63;;;1.20;;
74042;SDS011;62384;53.600;10.040;2022-10-16T05:34:50;2.13;;;1.25;;
74042;SDS011;62384;53.600;10.040;2022-10-16T05:37:15;2.45;;;1.17;;
74042;SDS011;62384;53.600;10.040;2022-10-16T05:39:41;2.53;;;0.90;;
74042;SDS011;62384;53.600;10.040;2022-10-16T05:42:06;3.35;;;1.17;;
74042;SDS011;62384;53.600;10.040;2022-10-16T05:44:32;3.03;;;1.25;;
74042;SDS011;62384;53.600;10.040;2022-10-16T05:46:57;3.92;;;1.13;;
74042;SDS011;62384;53.600;10.040;2022-10-16T05:49:23;1.90;;;1.00;;
74042;SDS011;62384;53.600;10.040;2022-10-16T05:51:48;3.47;;;0.98;;
74042;SDS011;62384;53.600;10.040;2022-10-16T05:54:13;3.85;;;1.33;;
74042;SDS011;62384;53.600;10.040;2022-10-16T05:56:39;4.88;;;1.42;;
74042;SDS011;62384;53.600;10.040;2022-10-16T05:59:04;4.97;;;1.27;;
74042;SDS011;62384;53.600;10.040;2022-10-16T06:01:31;4.35;;;1.08;;
74042;SDS011;62384;53.600;10.040;2022-10-16T06:03:57;2.80;;;1.20;;
74042;SDS011;62384;53.600;10.040;2022-10-16T06:06:23;2.70;;;1.00;;
74042;SDS011;62384;53.600;10.040;2022-10-16T06:08:53;2.80;;;0.93;;
74042;SDS011;62384;53.600;10.040;2022-10-16T06:11:32;3.67;;;1.15;;
74042;SDS011;62384;53.600;10.040;2022-10-16T06:13:59;1.48;;;0.80;;
74042;SDS011;62384;53.600;10.040;2022-10-16T06:16:28;2.55;;;1.00;;
74042;SDS011;62384;53.600;10.040;2022-10-16T06:18:54;3.47;;;0.98;;
74042;SDS011;62384;53.600;10.040;2022-10-16T06:21:25;2.10;;;0.90;;
74042;SDS011;62384;53.600;10.040;2022-10-16T06:23:52;4.60;;;1.00;;
74042;SDS011;62384;53.600;10.040;2022-10-16T06:26:19;2.63;;;0.80;;
74042;SDS011;62384;53.600;10.040;2022-10-16T06:28:46;3.22;;;1.42;;
74042;SDS011;62384;53.600;10.040;2022-10-16T06:31:12;5.10;;;1.13;;
74042;SDS011;62384;53.600;10.040;2022-10-16T06:33:40;1.23;;;0.88;;
74042;SDS011;62384;53.600;10.040;2022-10-16T06:36:10;2.28;;;0.88;;
74042;SDS011;62384;53.600;10.040;2022-10-16T06:38:40;3.47;;;1.38;;
74042;SDS011;62384;53.600;10.040;2022-10-16T06:41:13;2.00;;;1.38;;
74042;SDS011;62384;53.600;10.040;2022-10-16T06:43:41;4.30;;;1.13;;
74042;SDS011;62384;53.600;10.040;2022-10-16T06:46:07;4.85;;;1.45;;
74042;SDS011;62384;53.600;10.040;2022-10-16T06:48:35;6.22;;;1.13;;
74042;SDS011;62384;53.600;10.040;2022-10-16T06:51:14;6.00;;;1.40;;
74042;SDS011;62384;53.600;10.040;2022-10-16T06:53:42;6.88;;;1.42;;
74042;SDS011;62384;53.600;10.040;2022-10-16T06:58:35;3.38;;;0.85;;
74042;SDS011;62384;53.600;10.040;2022-10-16T07:01:01;4.35;;;1.35;;
74042;SDS011;62384;53.600;10.040;2022-10-16T07:03:26;1.75;;;1.30;;
74042;SDS011;62384;53.600;10.040;2022-10-16T07:05:52;4.72;;;1.48;;
74042;SDS011;62384;53.600;10.040;2022-10-16T07:08:20;3.42;;;1.50;;
74042;SDS011;62384;53.600;10.040;2022-10-16T07:10:45;4.60;;;1.42;;
74042;SDS011;62384;53.600;10.040;2022-10-16T07:13:13;2.42;;;1.35;;
74042;SDS011;62384;53.600;10.040;2022-10-16T07:15:40;2.15;;;1.35;;
74042;SDS011;62384;53.600;10.040;2022-10-16T07:18:06;14.73;;;1.73;;
74042;SDS011;62384;53.600;10.040;2022-10-16T07:20:31;3.17;;;1.40;;
74042;SDS011;62384;53.600;10.040;2022-10-16T07:22:57;3.85;;;1.23;;
74042;SDS011;62384;53.600;10.040;2022-10-16T07:25:23;2.95;;;1.48;;
74042;SDS011;62384;53.600;10.040;2022-10-16T07:27:52;3.08;;;1.20;;
74042;SDS011;62384;53.600;10.040;2022-10-16T07:30:17;3.20;;;1.60;;
74042;SDS011;62384;53.600;10.040;2022-10-16T07:32:43;4.07;;;1.55;;
74042;SDS011;62384;53.600;10.040;2022-10-16T07:35:08;3.63;;;1.30;;
74042;SDS011;62384;53.600;10.040;2022-10-16T07:37:33;5.95;;;1.80;;
74042;SDS011;62384;53.600;10.040;2022-10-16T07:39:59;3.42;;;1.65;;
74042;SDS011;62384;53.600;10.040;2022-10-16T07:42:24;4.05;;;1.58;;
74042;SDS011;62384;53.600;10.040;2022-10-16T07:44:49;3.88;;;1.58;;
74042;SDS011;62384;53.600;10.040;2022-10-16T07:47:14;6.88;;;1.65;;
74042;SDS011;62384;53.600;10.040;2022-10-16T07:49:40;3.53;;;1.80;;
74042;SDS011;62384;53.600;10.040;2022-10-16T07:52:06;5.07;;;1.95;;
74042;SDS011;62384;53.600;10.040;2022-10-16T07:54:31;2.70;;;1.40;;
74042;SDS011;62384;53.600;10.040;2022-10-16T07:57:01;4.97;;;1.25;;
74042;SDS011;62384;53.600;10.040;2022-10-16T07:59:27;3.20;;;1.42;;
74042;SDS011;62384;53.600;10.040;2022-10-16T08:01:52;5.05;;;1.52;;
74042;SDS011;62384;53.600;10.040;2022-10-16T08:04:21;2.65;;;1.45;;
74042;SDS011;62384;53.600;10.040;2022-10-16T08:06:46;4.82;;;1.23;;
74042;SDS011;62384;53.600;10.040;2022-10-16T08:09:11;2.40;;;1.33;;
74042;SDS011;62384;53.600;10.040;2022-10-16T08:11:38;3.80;;;1.20;;
74042;SDS011;62384;53.600;10.040;2022-10-16T08:14:04;3.63;;;1.50;;
74042;SDS011;62384;53.600;10.040;2022-10-16T08:16:30;4.70;;;1.70;;
74042;SDS011;62384;53.600;10.040;2022-10-16T08:18:58;4.25;;;1.40;;
74042;SDS011;62384;53.600;10.040;2022-10-16T08:21:23;4.95;;;1.40;;
74042;SDS011;62384;53.600;10.040;2022-10-16T08:23:49;3.60;;;1.50;;
74042;SDS011;62384;53.600;10.040;2022-10-16T08:26:15;4.65;;;1.73;;
74042;SDS011;62384;53.600;10.040;2022-10-16T08:28:40;4.40;;;1.67;;
74042;SDS011;62384;53.600;10.040;2022-10-16T08:31:10;1.35;;;1.10;;
74042;SDS011;62384;53.600;10.040;2022-10-16T08:33:37;2.43;;;1.33;;
74042;SDS011;62384;53.600;10.040;2022-10-16T08:36:05;3.85;;;1.10;;
74042;SDS011;62384;53.600;10.040;2022-10-16T08:38:32;3.20;;;1.13;;
74042;SDS011;62384;53.600;10.040;2022-10-16T08:41:17;5.55;;;1.25;;
74042;SDS011;62384;53.600;10.040;2022-10-16T08:49:31;3.05;;;1.30;;
74042;SDS011;62384;53.600;10.040;2022-10-16T08:51:57;7.90;;;1.77;;
74042;SDS011;62384;53.600;10.040;2022-10-16T08:56:57;3.15;;;1.17;;
74042;SDS011;62384;53.600;10.040;2022-10-16T08:59:33;2.55;;;1.25;;
74042;SDS011;62384;53.600;10.040;2022-10-16T09:01:59;3.55;;;1.40;;
74042;SDS011;62384;53.600;10.040;2022-10-16T09:04:32;5.03;;;1.40;;
74042;SDS011;62384;53.600;10.040;2022-10-16T09:13:28;5.82;;;1.52;;
74042;SDS011;62384;53.600;10.040;2022-10-16T09:21:18;4.28;;;1.25;;
74042;SDS011;62384;53.600;10.040;2022-10-16T09:23:46;1.77;;;1.10;;
74042;SDS011;62384;53.600;10.040;2022-10-16T09:26:13;2.63;;;1.08;;
74042;SDS011;62384;53.600;10.040;2022-10-16T09:28:39;3.03;;;0.80;;
74042;SDS011;62384;53.600;10.040;2022-10-16T09:31:05;2.83;;;1.02;;
74042;SDS011;62384;53.600;10.040;2022-10-16T09:33:40;2.05;;;0.90;;
74042;SDS011;62384;53.600;10.040;2022-10-16T09:36:06;4.70;;;0.63;;
74042;SDS011;62384;53.600;10.040;2022-10-16T09:38:34;5.05;;;0.95;;
74042;SDS011;62384;53.600;10.040;2022-10-16T09:41:20;4.38;;;0.90;;
74042;SDS011;62384;53.600;10.040;2022-10-16T09:44:00;3.60;;;1.13;;
74042;SDS011;62384;53.600;10.040;2022-10-16T09:48:55;3.33;;;0.80;;
74042;SDS011;62384;53.600;10.040;2022-10-16T09:56:33;1.95;;;0.50;;
74042;SDS011;62384;53.600;10.040;2022-10-16T09:59:13;0.70;;;0.45;;
74042;SDS011;62384;53.600;10.040;2022-10-16T10:01:40;0.47;;;0.32;;
74042;SDS011;62384;53.600;10.040;2022-10-16T10:04:06;2.58;;;0.75;;
74042;SDS011;62384;53.600;10.040;2022-10-16T10:06:36;1.02;;;0.70;;
74042;SDS011;62384;53.600;10.040;2022-10-16T10:09:14;2.13;;;0.55;;
74042;SDS011;62384;53.600;10.040;2022-10-16T10:11:48;2.25;;;0.90;;
74042;SDS011;62384;53.600;10.040;2022-10-16T10:14:17;2.22;;;0.60;;
74042;SDS011;62384;53.600;10.040;2022-10-16T10:16:42;1.73;;;0.45;;
74042;SDS011;62384;53.600;10.040;2022-10-16T10:19:19;2.63;;;0.70;;
74042;SDS011;62384;53.600;10.040;2022-10-16T10:21:46;1.30;;;0.60;;
74042;SDS011;62384;53.600;10.040;2022-10-16T10:24:16;4.20;;;0.70;;
74042;SDS011;62384;53.600;10.040;2022-10-16T10:26:46;2.78;;;1.13;;
74042;SDS011;62384;53.600;10.040;2022-10-16T10:29:28;2.20;;;0.60;;
74042;SDS011;62384;53.600;10.040;2022-10-16T10:35:18;4.43;;;0.65;;
74042;SDS011;62384;53.600;10.040;2022-10-16T10:43:45;4.32;;;1.02;;
74042;SDS011;62384;53.600;10.040;2022-10-16T10:49:36;7.07;;;0.90;;
74042;SDS011;62384;53.600;10.040;2022-10-16T10:52:28;1.58;;;0.70;;
74042;SDS011;62384;53.600;10.040;2022-10-16T10:58:39;0.88;;;0.45;;
74042;SDS011;62384;53.600;10.040;2022-10-16T11:01:17;2.92;;;0.77;;
74042;SDS011;62384;53.600;10.040;2022-10-16T11:07:28;4.07;;;0.70;;
74042;SDS011;62384;53.600;10.040;2022-10-16T11:10:03;1.25;;;0.50;;
74042;SDS011;62384;53.600;10.040;2022-10-16T11:12:46;1.30;;;0.52;;
74042;SDS011;62384;53.600;10.040;2022-10-16T11:15:25;1.60;;;0.50;;
74042;SDS011;62384;53.600;10.040;2022-10-16T11:18:05;3.72;;;0.70;;
74042;SDS011;62384;53.600;10.040;2022-10-16T11:20:41;1.35;;;0.60;;
74042;SDS011;62384;53.600;10.040;2022-10-16T11:25:41;4.63;;;0.73;;
74042;SDS011;62384;53.600;10.040;2022-10-16T11:31:22;2.00;;;0.40;;
74042;SDS011;62384;53.600;10.040;2022-10-16T11:44:09;3.47;;;0.30;;
74042;SDS011;62384;53.600;10.040;2022-10-16T11:46:51;1.85;;;0.43;;
74042;SDS011;62384;53.600;10.040;2022-10-16T11:49:26;3.33;;;0.55;;
74042;SDS011;62384;53.600;10.040;2022-10-16T11:51:59;2.13;;;0.45;;
74042;SDS011;62384;53.600;10.040;2022-10-16T11:54:39;3.45;;;0.40;;
74042;SDS011;62384;53.600;10.040;2022-10-16T11:57:23;4.28;;;0.40;;
74042;SDS011;62384;53.600;10.040;2022-10-16T11:59:55;1.73;;;0.40;;
74042;SDS011;62384;53.600;10.040;2022-10-16T12:02:33;1.77;;;0.50;;
74042;SDS011;62384;53.600;10.040;2022-10-16T12:05:58;2.67;;;0.75;;
74042;SDS011;62384;53.600;10.040;2022-10-16T12:08:39;3.13;;;0.50;;
74042;SDS011;62384;53.600;10.040;2022-10-16T12:11:30;1.15;;;0.30;;
74042;SDS011;62384;53.600;10.040;2022-10-16T12:19:24;3.35;;;0.50;;
74042;SDS011;62384;53.600;10.040;2022-10-16T12:22:15;2.58;;;0.60;;
74042;SDS011;62384;53.600;10.040;2022-10-16T12:24:43;3.85;;;0.70;;
74042;SDS011;62384;53.600;10.040;2022-10-16T12:27:28;2.30;;;0.60;;
74042;SDS011;62384;53.600;10.040;2022-10-16T12:30:15;1.48;;;0.50;;
74042;SDS011;62384;53.600;10.040;2022-10-16T12:32:56;1.90;;;0.68;;
74042;SDS011;62384;53.600;10.040;2022-10-16T12:35:46;1.83;;;0.40;;
74042;SDS011;62384;53.600;10.040;2022-10-16T12:38:18;3.92;;;0.40;;
74042;SDS011;62384;53.600;10.040;2022-10-16T12:40:47;1.73;;;0.52;;
74042;SDS011;62384;53.600;10.040;2022-10-16T12:46:04;2.67;;;0.50;;
74042;SDS011;62384;53.600;10.040;2022-10-16T12:48:47;2.22;;;0.80;;
74042;SDS011;62384;53.600;10.040;2022-10-16T12:51:23;3.90;;;0.70;;
74042;SDS011;62384;53.600;10.040;2022-10-16T12:54:11;4.80;;;0.57;;
74042;SDS011;62384;53.600;10.040;2022-10-16T13:05:26;1.83;;;0.50;;
74042;SDS011;62384;53.600;10.040;2022-10-16T13:22:28;0.85;;;0.40;;
74042;SDS011;62384;53.600;10.040;2022-10-16T13:28:05;3.65;;;0.35;;
74042;SDS011;62384;53.600;10.040;2022-10-16T13:31:10;6.80;;;0.63;;
74042;SDS011;62384;53.600;10.040;2022-10-16T13:33:44;6.15;;;0.63;;
74042;SDS011;62384;53.600;10.040;2022-10-16T13:36:43;1.85;;;0.50;;
74042;SDS011;62384;53.600;10.040;2022-10-16T13:41:37;1.00;;;0.40;;
74042;SDS011;62384;53.600;10.040;2022-10-16T13:44:03;1.85;;;0.45;;
74042;SDS011;62384;53.600;10.040;2022-10-16T13:46:31;2.67;;;0.50;;
74042;SDS011;62384;53.600;10.040;2022-10-16T13:49:20;2.75;;;0.60;;
74042;SDS011;62384;53.600;10.040;2022-10-16T13:52:19;2.53;;;1.20;;
74042;SDS011;62384;53.600;10.040;2022-10-16T13:54:49;1.15;;;0.30;;
74042;SDS011;62384;53.600;10.040;2022-10-16T13:57:15;2.10;;;0.50;;
74042;SDS011;62384;53.600;10.040;2022-10-16T13:59:40;1.77;;;0.60;;
74042;SDS011;62384;53.600;10.040;2022-10-16T14:04:47;4.45;;;0.77;;
74042;SDS011;62384;53.600;10.040;2022-10-16T14:07:19;1.67;;;0.50;;
74042;SDS011;62384;53.600;10.040;2022-10-16T14:09:49;3.83;;;0.65;;
74042;SDS011;62384;53.600;10.040;2022-10-16T14:12:16;1.20;;;0.30;;
74042;SDS011;62384;53.600;10.040;2022-10-16T14:14:48;4.25;;;0.40;;
74042;SDS011;62384;53.600;10.040;2022-10-16T14:17:18;4.53;;;0.65;;
74042;SDS011;62384;53.600;10.040;2022-10-16T14:20:00;2.53;;;0.45;;
74042;SDS011;62384;53.600;10.040;2022-10-16T14:22:36;4.78;;;0.93;;
74042;SDS011;62384;53.600;10.040;2022-10-16T14:30:28;6.28;;;0.93;;
74042;SDS011;62384;53.600;10.040;2022-10-16T14:32:55;2.17;;;0.60;;
74042;SDS011;62384;53.600;10.040;2022-10-16T14:35:32;4.60;;;0.50;;
74042;SDS011;62384;53.600;10.040;2022-10-16T14:38:05;4.13;;;0.50;;
74042;SDS011;62384;53.600;10.040;2022-10-16T14:40:45;0.80;;;0.30;;
74042;SDS011;62384;53.600;10.040;2022-10-16T14:43:31;3.85;;;0.47;;
74042;SDS011;62384;53.600;10.040;2022-10-16T14:46:02;5.35;;;0.95;;
74042;SDS011;62384;53.600;10.040;2022-10-16T14:48:31;3.30;;;0.50;;
74042;SDS011;62384;53.600;10.040;2022-10-16T14:50:57;3.55;;;0.43;;
74042;SDS011;62384;53.600;10.040;2022-10-16T14:53:22;1.58;;;0.40;;
74042;SDS011;62384;53.600;10.040;2022-10-16T14:55:51;4.32;;;0.90;;
74042;SDS011;62384;53.600;10.040;2022-10-16T14:58:18;1.40;;;0.50;;
74042;SDS011;62384;53.600;10.040;2022-10-16T15:00:45;1.88;;;0.50;;
74042;SDS011;62384;53.600;10.040;2022-10-16T15:03:11;5.15;;;0.57;;
74042;SDS011;62384;53.600;10.040;2022-10-16T15:05:36;7.57;;;0.88;;
74042;SDS011;62384;53.600;10.040;2022-10-16T15:08:02;1.88;;;0.40;;
74042;SDS011;62384;53.600;10.040;2022-10-16T15:10:29;2.60;;;0.45;;
74042;SDS011;62384;53.600;10.040;2022-10-16T15:15:46;4.88;;;0.45;;
74042;SDS011;62384;53.600;10.040;2022-10-16T15:18:12;1.50;;;0.77;;
74042;SDS011;62384;53.600;10.040;2022-10-16T15:20:40;1.95;;;0.75;;
74042;SDS011;62384;53.600;10.040;2022-10-16T15:23:09;2.33;;;0.45;;
74042;SDS011;62384;53.600;10.040;2022-10-16T15:25:42;1.27;;;0.50;;
74042;SDS011;62384;53.600;10.040;2022-10-16T15:28:28;3.25;;;0.50;;
74042;SDS011;62384;53.600;10.040;2022-10-16T15:30:54;4.07;;;0.60;;
74042;SDS011;62384;53.600;10.040;2022-10-16T15:33:22;6.28;;;0.57;;
74042;SDS011;62384;53.600;10.040;2022-10-16T15:35:52;3.42;;;0.50;;
74042;SDS011;62384;53.600;10.040;2022-10-16T15:38:19;1.85;;;0.40;;
74042;SDS011;62384;53.600;10.040;2022-10-16T15:40:47;2.95;;;0.60;;
74042;SDS011;62384;53.600;10.040;2022-10-16T15:43:13;2.80;;;0.60;;
74042;SDS011;62384;53.600;10.040;2022-10-16T15:45:39;3.45;;;0.80;;
74042;SDS011;62384;53.600;10.040;2022-10-16T15:48:10;2.58;;;0.45;;
74042;SDS011;62384;53.600;10.040;2022-10-16T15:50:37;1.38;;;0.55;;
74042;SDS011;62384;53.600;10.040;2022-10-16T15:53:03;5.03;;;0.55;;
74042;SDS011;62384;53.600;10.040;2022-10-16T15:55:29;5.88;;;0.60;;
74042;SDS011;62384;53.600;10.040;2022-10-16T15:57:54;2.35;;;0.70;;
74042;SDS011;62384;53.600;10.040;2022-10-16T16:00:20;3.63;;;0.70;;
74042;SDS011;62384;53.600;10.040;2022-10-16T16:02:50;8.32;;;1.25;;
74042;SDS011;62384;53.600;10.040;2022-10-16T16:05:17;3.42;;;0.70;;
74042;SDS011;62384;53.600;10.040;2022-10-16T16:07:45;3.80;;;0.70;;
74042;SDS011;62384;53.600;10.040;2022-10-16T16:10:11;5.25;;;0.73;;
74042;SDS011;62384;53.600;10.040;2022-10-16T16:12:37;6.20;;;0.50;;
74042;SDS011;62384;53.600;10.040;2022-10-16T16:15:04;5.38;;;0.73;;
74042;SDS011;62384;53.600;10.040;2022-10-16T16:17:33;4.72;;;0.98;;
74042;SDS011;62384;53.600;10.040;2022-10-16T16:19:59;4.38;;;1.02;;
74042;SDS011;62384;53.600;10.040;2022-10-16T16:22:25;2.08;;;0.93;;
74042;SDS011;62384;53.600;10.040;2022-10-16T16:25:00;5.78;;;1.10;;
74042;SDS011;62384;53.600;10.040;2022-10-16T16:27:31;4.70;;;0.90;;
74042;SDS011;62384;53.600;10.040;2022-10-16T16:29:58;5.82;;;1.25;;
74042;SDS011;62384;53.600;10.040;2022-10-16T16:32:24;5.07;;;0.60;;
74042;SDS011;62384;53.600;10.040;2022-10-16T16:34:50;5.97;;;1.00;;
74042;SDS011;62384;53.600;10.040;2022-10-16T16:37:15;6.40;;;0.80;;
74042;SDS011;62384;53.600;10.040;2022-10-16T16:39:41;2.45;;;0.90;;
74042;SDS011;62384;53.600;10.040;2022-10-16T16:42:06;7.90;;;0.90;;
74042;SDS011;62384;53.600;10.040;2022-10-16T16:44:32;5.50;;;0.77;;
74042;SDS011;62384;53.600;10.040;2022-10-16T16:46:58;4.57;;;0.90;;
74042;SDS011;62384;53.600;10.040;2022-10-16T16:49:23;2.03;;;0.82;;
74042;SDS011;62384;53.600;10.040;2022-10-16T16:51:52;3.28;;;0.70;;
74042;SDS011;62384;53.600;10.040;2022-10-16T16:54:18;7.32;;;1.05;;
74042;SDS011;62384;53.600;10.040;2022-10-16T16:56:44;3.70;;;1.15;;
74042;SDS011;62384;53.600;10.040;2022-10-16T16:59:11;5.85;;;1.00;;
74042;SDS011;62384;53.600;10.040;2022-10-16T17:01:42;5.95;;;1.08;;